Terminal Aerodrome Forecast
Issued by NWS

Home | Current Version | Previous Version | Text Only | Print | Product List | Glossary On
Versions: 1 2 3 4 5 6 7 8 9 10 11 12 13 14 15 16
000
FTUS45 KPSR 222335
TAFIWA
TAF
KIWA 222335Z 2300/2324 27006KT P6SM FEW080 FEW200
     FM230800 12006KT P6SM FEW120 SCT250
     FM231900 28007KT P6SM FEW100 SCT250
      AMD LTD TO CLD VIS AND WIND 2303/2313=

USA.gov is the U.S. government's official web portal to all federal, state and local government web resources and services.